createdAt,value
2022-10-13T00:00:09.961Z,95123.03
2022-10-13T00:02:36.605Z,95121.63
2022-10-13T00:05:03.404Z,95119.09
2022-10-13T00:07:30.052Z,95116.13
2022-10-13T00:09:56.867Z,95120.03
2022-10-13T00:12:23.594Z,95115.88
2022-10-13T00:14:50.248Z,95124.84
2022-10-13T00:17:16.853Z,95108.50
2022-10-13T00:19:43.573Z,95122.63
2022-10-13T00:22:10.212Z,95120.03
2022-10-13T00:24:36.964Z,95117.56
2022-10-13T00:27:03.612Z,95129.53
2022-10-13T00:29:30.315Z,95124.72
2022-10-13T00:31:56.949Z,95113.28
2022-10-13T00:34:23.593Z,95125.91
2022-10-13T00:36:50.266Z,95122.50
2022-10-13T00:39:16.874Z,95105.25
2022-10-13T00:41:43.492Z,95116.91
2022-10-13T00:44:47.412Z,95091.06
2022-10-13T00:47:14.124Z,95124.50
2022-10-13T00:49:40.763Z,95119.03
2022-10-13T00:52:07.406Z,95126.25
2022-10-13T00:54:34.193Z,95129.81
2022-10-13T00:57:03.255Z,95097.00
2022-10-13T00:59:31.183Z,95109.75
2022-10-13T01:01:58.961Z,95121.63
2022-10-13T01:04:27.668Z,95121.06
2022-10-13T01:06:55.510Z,95121.75
2022-10-13T01:09:22.150Z,95097.94
2022-10-13T01:12:33.143Z,95111.25
2022-10-13T01:15:19.993Z,95121.41
2022-10-13T01:17:59.082Z,95101.28
2022-10-13T01:20:53.143Z,95108.16
2022-10-13T01:23:28.464Z,95110.81
2022-10-13T01:26:32.495Z,95115.84
2022-10-13T01:29:36.501Z,95118.41
2022-10-13T01:32:11.206Z,95119.63
2022-10-13T01:34:42.861Z,95125.53
2022-10-13T01:37:29.660Z,95124.34
2022-10-13T01:40:11.105Z,95112.44
2022-10-13T01:42:47.005Z,95105.53
2022-10-13T01:45:14.713Z,95113.53
2022-10-13T01:47:42.043Z,95097.31
2022-10-13T01:50:09.084Z,95079.22
2022-10-13T01:52:37.692Z,95095.25
2022-10-13T01:55:09.962Z,95104.97
2022-10-13T01:57:41.846Z,95068.44
2022-10-13T02:00:15.219Z,95090.06
2022-10-13T02:03:22.337Z,95091.16
2022-10-13T02:05:50.522Z,95084.72
2022-10-13T02:09:15.603Z,95083.19
2022-10-13T02:11:49.814Z,95077.06
2022-10-13T02:14:26.435Z,95080.50
2022-10-13T02:16:53.900Z,95064.84
2022-10-13T02:19:20.669Z,95065.66
2022-10-13T02:21:47.664Z,95079.00
2022-10-13T02:24:14.422Z,95066.91
2022-10-13T02:26:41.761Z,95055.69
2022-10-13T02:29:14.020Z,95084.50
2022-10-13T02:31:41.226Z,95087.28
2022-10-13T02:34:08.277Z,95060.09
2022-10-13T02:36:35.859Z,95083.47
2022-10-13T02:39:02.502Z,95076.84
2022-10-13T02:41:29.177Z,95074.56
2022-10-13T02:43:55.839Z,95061.72
2022-10-13T02:46:22.490Z,95079.50
2022-10-13T02:48:49.130Z,95045.59
2022-10-13T02:51:15.791Z,95065.81
2022-10-13T02:53:42.469Z,95082.09
2022-10-13T02:56:09.170Z,95077.88
2022-10-13T02:58:36.308Z,95081.47
2022-10-13T03:01:11.342Z,95075.03
2022-10-13T03:03:38.548Z,95083.16
2022-10-13T03:06:05.864Z,95067.50
2022-10-13T03:08:34.341Z,95091.31
2022-10-13T03:11:01.241Z,95072.00
2022-10-13T03:13:27.918Z,95069.69
2022-10-13T03:15:54.533Z,95068.66
2022-10-13T03:18:21.175Z,95042.66
2022-10-13T03:20:56.965Z,95087.84
2022-10-13T03:23:23.749Z,95047.13
2022-10-13T03:25:50.384Z,95070.69
2022-10-13T03:28:17.283Z,95070.47
2022-10-13T03:30:43.924Z,95091.06
2022-10-13T03:33:10.851Z,95098.00
2022-10-13T03:35:37.553Z,95096.53
2022-10-13T03:38:04.145Z,95102.59
2022-10-13T03:40:30.818Z,95092.72
2022-10-13T03:42:57.432Z,95102.00
2022-10-13T03:45:24.073Z,95098.56
2022-10-13T03:47:50.726Z,95104.78
2022-10-13T03:50:17.481Z,95104.78
2022-10-13T03:52:44.101Z,95090.66
2022-10-13T03:55:10.753Z,95084.19
2022-10-13T03:57:37.394Z,95069.84
2022-10-13T04:00:04.442Z,95082.03
2022-10-13T04:02:31.085Z,95063.25
2022-10-13T04:04:57.718Z,95062.59
2022-10-13T04:07:24.392Z,95057.47
2022-10-13T04:09:51.122Z,95072.66
2022-10-13T04:12:20.808Z,95064.75
2022-10-13T04:14:48.873Z,95057.00
2022-10-13T04:17:15.528Z,95063.13
2022-10-13T04:19:42.157Z,95084.16
2022-10-13T04:22:08.796Z,95074.97
2022-10-13T04:24:35.433Z,95086.03
2022-10-13T04:27:02.069Z,95085.53
2022-10-13T04:29:28.685Z,95086.88
2022-10-13T04:31:55.613Z,95087.50
2022-10-13T04:34:22.281Z,95064.06
2022-10-13T04:36:51.932Z,95072.19
2022-10-13T04:39:18.799Z,95067.06
2022-10-13T04:41:45.666Z,95041.84
2022-10-13T04:44:12.293Z,95059.19
2022-10-13T04:46:39.046Z,95068.84
2022-10-13T04:49:05.729Z,95061.47
2022-10-13T04:51:32.625Z,95070.84
2022-10-13T04:54:05.579Z,95062.06
2022-10-13T04:56:32.612Z,95066.41
2022-10-13T04:59:00.193Z,95068.22
2022-10-13T05:01:27.113Z,95061.47
2022-10-13T05:03:55.477Z,95077.47
2022-10-13T05:06:27.588Z,95063.81
2022-10-13T05:08:54.710Z,95075.00
2022-10-13T05:11:21.958Z,95073.69
2022-10-13T05:13:49.231Z,95077.66
2022-10-13T05:16:17.623Z,95065.78
2022-10-13T05:18:44.654Z,95073.72
2022-10-13T05:21:17.170Z,95079.16
2022-10-13T05:23:45.423Z,95074.00
2022-10-13T05:26:15.273Z,95074.16
2022-10-13T05:28:42.393Z,95070.03
2022-10-13T05:31:16.666Z,95062.50
2022-10-13T05:33:44.356Z,95069.09
2022-10-13T05:36:17.056Z,95065.94
2022-10-13T05:38:44.212Z,95071.38
2022-10-13T05:41:14.304Z,95064.13
2022-10-13T05:43:42.386Z,95065.78
2022-10-13T05:46:10.021Z,95077.84
2022-10-13T05:48:37.662Z,95083.06
2022-10-13T05:51:11.574Z,95085.72
2022-10-13T05:53:40.484Z,95070.75
2022-10-13T05:56:13.806Z,95064.00
2022-10-13T05:58:44.078Z,95059.22
2022-10-13T06:01:12.922Z,95059.47
2022-10-13T06:03:40.177Z,95060.16
2022-10-13T06:06:07.194Z,95068.72
2022-10-13T06:08:34.995Z,95074.81
2022-10-13T06:11:03.141Z,95070.88
2022-10-13T06:13:29.795Z,95047.97
2022-10-13T06:15:56.467Z,95053.88
2022-10-13T06:18:23.102Z,95052.53
2022-10-13T06:20:49.771Z,95038.69
2022-10-13T06:23:16.471Z,95045.63
2022-10-13T06:25:53.228Z,95053.50
2022-10-13T06:28:20.546Z,95052.19
2022-10-13T06:30:53.995Z,95049.72
2022-10-13T06:33:21.232Z,95043.97
2022-10-13T06:35:48.107Z,95039.34
2022-10-13T06:38:14.737Z,95036.84
2022-10-13T06:40:42.445Z,95039.50
2022-10-13T06:43:09.428Z,95044.09
2022-10-13T06:45:36.168Z,95037.66
2022-10-13T06:48:02.933Z,95047.25
2022-10-13T06:50:29.895Z,95034.25
2022-10-13T06:52:56.892Z,95047.25
2022-10-13T06:55:24.569Z,95026.50
2022-10-13T06:57:51.213Z,95038.03
2022-10-13T07:00:18.183Z,95064.03
2022-10-13T07:02:44.817Z,95037.66
2022-10-13T07:05:11.521Z,95055.59
2022-10-13T07:07:38.142Z,95040.91
2022-10-13T07:10:05.126Z,95046.19
2022-10-13T07:12:31.792Z,95049.59
2022-10-13T07:14:59.509Z,95039.03
2022-10-13T07:17:26.132Z,95040.97
2022-10-13T07:19:57.730Z,95012.34
2022-10-13T07:22:25.023Z,95040.50
2022-10-13T07:24:51.687Z,95049.44
2022-10-13T07:27:18.348Z,95037.50
2022-10-13T07:29:44.960Z,95032.22
2022-10-13T07:32:11.593Z,95040.75
2022-10-13T07:34:38.241Z,95026.84
2022-10-13T07:37:05.169Z,95045.63
2022-10-13T07:39:31.849Z,95046.91
2022-10-13T07:41:58.465Z,95043.56
2022-10-13T07:44:25.323Z,95029.34
2022-10-13T07:46:51.947Z,95036.16
2022-10-13T07:49:18.576Z,95033.91
2022-10-13T07:51:45.265Z,95032.47
2022-10-13T07:54:11.929Z,95035.16
2022-10-13T07:56:38.613Z,95040.19
2022-10-13T07:59:05.467Z,95039.63
2022-10-13T08:01:32.331Z,95036.66
2022-10-13T08:03:59.398Z,95039.56
2022-10-13T08:06:26.500Z,95043.50
2022-10-13T08:08:53.287Z,95018.03
2022-10-13T08:11:20.165Z,95031.44
2022-10-13T08:13:50.973Z,95034.09
2022-10-13T08:16:18.141Z,95031.66
2022-10-13T08:18:45.308Z,95021.50
2022-10-13T08:24:12.770Z,95017.84
2022-10-13T08:26:39.569Z,95030.47
2022-10-13T08:29:23.307Z,95015.47
2022-10-13T08:31:53.085Z,95027.34
2022-10-13T08:34:20.856Z,95025.84
2022-10-13T08:36:47.545Z,95024.94
2022-10-13T08:39:14.227Z,95039.16
2022-10-13T08:41:44.570Z,95014.75
2022-10-13T08:45:10.874Z,95031.91
2022-10-13T08:47:36.393Z,95029.69
2022-10-13T08:50:07.874Z,95018.06
2022-10-13T08:52:49.937Z,95025.41
2022-10-13T08:55:23.360Z,95015.25
2022-10-13T08:57:50.325Z,95016.88
2022-10-13T09:00:17.497Z,95011.13
2022-10-13T09:02:45.353Z,95013.53
2022-10-13T09:05:22.684Z,95014.78
2022-10-13T09:07:49.664Z,94985.22
2022-10-13T09:10:16.703Z,95008.72
2022-10-13T09:12:43.404Z,95001.66
2022-10-13T09:15:12.085Z,95009.31
2022-10-13T09:17:40.820Z,95014.94
2022-10-13T09:20:24.221Z,95010.28
2022-10-13T09:23:17.861Z,95006.84
2022-10-13T09:25:48.545Z,95001.66
2022-10-13T09:28:27.315Z,95003.16
2022-10-13T09:31:13.892Z,94998.69
2022-10-13T09:33:41.158Z,95012.31
2022-10-13T09:36:13.718Z,95005.94
2022-10-13T09:38:43.519Z,94988.50
2022-10-13T09:41:10.076Z,95008.38
2022-10-13T09:44:08.121Z,95007.47
2022-10-13T09:46:48.030Z,95013.44
2022-10-13T09:49:35.335Z,94990.81
2022-10-13T09:52:06.258Z,95007.31
2022-10-13T09:54:35.802Z,95000.06
2022-10-13T09:57:32.825Z,94988.81
2022-10-13T10:00:18.104Z,94991.69
2022-10-13T10:02:58.101Z,94997.53
2022-10-13T10:05:29.920Z,94993.66
2022-10-13T10:07:59.110Z,94993.22
2022-10-13T10:10:35.152Z,94980.47
2022-10-13T10:13:02.351Z,94994.88
2022-10-13T10:15:50.451Z,94992.00
2022-10-13T10:18:21.385Z,94976.88
2022-10-13T10:20:53.570Z,95003.50
2022-10-13T10:23:32.464Z,94995.44
2022-10-13T10:26:15.584Z,95001.44
2022-10-13T10:29:06.171Z,95005.41
2022-10-13T10:31:53.892Z,94991.75
2022-10-13T10:34:37.552Z,94981.25
2022-10-13T10:37:30.500Z,94985.47
2022-10-13T10:40:19.764Z,94969.59
2022-10-13T10:43:08.747Z,94968.16
2022-10-13T10:45:39.118Z,94981.19
2022-10-13T10:48:17.860Z,94979.31
2022-10-13T10:50:46.106Z,94971.41
2022-10-13T10:53:28.467Z,94975.84
2022-10-13T10:55:58.009Z,94953.94
2022-10-13T10:58:55.602Z,94968.22
2022-10-13T11:01:34.416Z,94971.00
2022-10-13T11:04:30.737Z,94960.22
2022-10-13T11:06:57.504Z,94958.97
2022-10-13T11:09:42.597Z,94958.75
2022-10-13T11:12:21.480Z,94948.78
2022-10-13T11:15:02.188Z,94942.44
2022-10-13T11:17:29.958Z,94948.44
2022-10-13T11:19:57.256Z,94939.59
2022-10-13T11:22:26.107Z,94939.44
2022-10-13T11:24:56.063Z,94938.06
2022-10-13T11:27:26.951Z,94934.63
2022-10-13T11:29:58.934Z,94935.66
2022-10-13T11:32:25.887Z,94929.72
2022-10-13T11:35:04.600Z,94933.22
2022-10-13T11:37:51.688Z,94933.78
2022-10-13T11:40:58.335Z,94911.25
2022-10-13T11:43:41.994Z,94920.03
2022-10-13T11:46:20.654Z,94928.31
2022-10-13T11:49:05.516Z,94920.78
2022-10-13T11:51:44.649Z,94924.34
2022-10-13T11:54:18.444Z,94920.53
2022-10-13T11:56:50.421Z,94911.75
2022-10-13T11:59:25.709Z,94909.75
2022-10-13T12:02:06.221Z,94901.16
2022-10-13T12:04:32.877Z,94909.34
2022-10-13T12:07:04.736Z,94898.28
2022-10-13T12:09:32.256Z,94904.03
2022-10-13T12:12:14.681Z,94900.75
2022-10-13T12:14:43.464Z,94897.31
2022-10-13T12:17:26.956Z,94887.28
2022-10-13T12:19:58.522Z,94882.75
2022-10-13T12:22:25.624Z,94875.81
2022-10-13T12:24:59.033Z,94871.31
2022-10-13T12:27:26.462Z,94861.72
2022-10-13T12:29:53.261Z,94850.84
2022-10-13T12:32:22.486Z,94860.25
2022-10-13T12:34:49.210Z,94850.03
2022-10-13T12:37:21.936Z,94862.06
2022-10-13T12:39:49.431Z,94855.13
2022-10-13T12:42:16.138Z,94858.19
2022-10-13T12:44:42.901Z,94840.16
2022-10-13T12:47:36.871Z,94842.19
2022-10-13T12:50:22.030Z,94846.31
2022-10-13T12:52:50.920Z,94835.06
2022-10-13T12:55:20.813Z,94841.03
2022-10-13T12:57:49.645Z,94829.34
2022-10-13T13:00:21.038Z,94831.56
2022-10-13T13:02:52.314Z,94820.09
2022-10-13T13:05:36.852Z,94830.72
2022-10-13T13:08:25.129Z,94816.81
2022-10-13T13:10:59.084Z,94829.75
2022-10-13T13:13:26.230Z,94806.38
2022-10-13T13:15:53.267Z,94810.72
2022-10-13T13:18:39.639Z,94826.13
2022-10-13T13:21:12.582Z,94810.97
2022-10-13T13:23:39.415Z,94817.13
2022-10-13T13:26:15.837Z,94814.72
2022-10-13T13:28:48.354Z,94820.44
2022-10-13T13:31:16.773Z,94824.19
2022-10-13T13:33:43.489Z,94812.94
2022-10-13T13:36:16.345Z,94821.03
2022-10-13T13:38:43.203Z,94822.16
2022-10-13T13:41:13.268Z,94818.06
2022-10-13T13:43:40.729Z,94823.81
2022-10-13T13:46:18.508Z,94822.38
2022-10-13T13:48:45.181Z,94816.44
2022-10-13T13:51:11.840Z,94799.22
2022-10-13T13:53:38.892Z,94813.94
2022-10-13T13:56:05.812Z,94811.13
2022-10-13T13:58:32.439Z,94797.56
2022-10-13T14:00:59.924Z,94811.03
2022-10-13T14:03:26.556Z,94800.06
2022-10-13T14:05:53.229Z,94806.56
2022-10-13T14:08:19.872Z,94795.56
2022-10-13T14:10:46.603Z,94797.81
2022-10-13T14:13:13.238Z,94797.16
2022-10-13T14:15:39.898Z,94788.59
2022-10-13T14:18:06.549Z,94798.88
2022-10-13T14:20:33.957Z,94800.53
2022-10-13T14:23:00.595Z,94778.91
2022-10-13T14:25:27.233Z,94777.66
2022-10-13T14:27:53.904Z,94765.75
2022-10-13T14:30:20.511Z,94785.13
2022-10-13T14:32:47.204Z,94773.09
2022-10-13T14:35:13.813Z,94793.31
2022-10-13T14:37:40.656Z,94777.16
2022-10-13T14:40:07.766Z,94782.47
2022-10-13T14:42:34.493Z,94787.13
2022-10-13T14:45:02.845Z,94789.53
2022-10-13T14:47:29.469Z,94796.50
2022-10-13T14:49:56.273Z,94786.88
2022-10-13T14:52:22.915Z,94798.75
2022-10-13T14:54:49.566Z,94795.25
2022-10-13T14:57:16.396Z,94799.13
2022-10-13T14:59:43.170Z,94806.28
2022-10-13T15:02:13.785Z,94771.31
2022-10-13T15:04:40.754Z,94779.69
2022-10-13T15:07:07.600Z,94782.53
2022-10-13T15:09:45.514Z,94776.81
2022-10-13T15:12:19.634Z,94791.53
2022-10-13T15:14:46.505Z,94800.56
2022-10-13T15:17:14.292Z,94780.91
2022-10-13T15:19:41.121Z,94799.75
2022-10-13T15:22:07.816Z,94798.94
2022-10-13T15:24:34.620Z,94804.25
2022-10-13T15:27:01.664Z,94787.91
2022-10-13T15:29:28.378Z,94774.22
2022-10-13T15:32:08.295Z,94769.88
2022-10-13T15:34:35.274Z,94801.81
2022-10-13T15:37:02.028Z,94791.19
2022-10-13T15:39:28.722Z,94794.44
2022-10-13T15:41:56.481Z,94796.69
2022-10-13T15:44:27.208Z,94784.00
2022-10-13T15:47:07.565Z,94794.00
2022-10-13T15:49:39.682Z,94795.06
2022-10-13T15:52:06.479Z,94776.25
2022-10-13T15:54:33.311Z,94775.41
2022-10-13T15:57:00.220Z,94783.34
2022-10-13T15:59:26.873Z,94776.63
2022-10-13T16:01:53.493Z,94768.66
2022-10-13T16:04:20.167Z,94762.91
2022-10-13T16:06:46.871Z,94785.19
2022-10-13T16:09:13.571Z,94789.88
2022-10-13T16:11:40.390Z,94769.03
2022-10-13T16:14:09.299Z,94753.50
2022-10-13T16:16:36.251Z,94775.13
2022-10-13T16:19:03.002Z,94776.31
2022-10-13T16:21:29.748Z,94774.25
2022-10-13T16:23:56.888Z,94791.03
2022-10-13T16:26:24.299Z,94761.56
2022-10-13T16:28:55.657Z,94795.97
2022-10-13T16:31:22.762Z,94795.75
2022-10-13T16:33:49.432Z,94790.00
2022-10-13T16:36:18.801Z,94793.31
2022-10-13T16:38:46.935Z,94783.28
2022-10-13T16:41:16.078Z,94789.19
2022-10-13T16:43:43.867Z,94756.72
2022-10-13T16:46:26.910Z,94776.78
2022-10-13T16:48:53.600Z,94715.22
2022-10-13T16:51:24.967Z,94759.16
2022-10-13T16:53:53.992Z,94720.63
2022-10-13T16:56:22.484Z,94770.13
2022-10-13T16:59:00.151Z,94784.88
2022-10-13T17:01:27.431Z,94783.03
2022-10-13T17:03:54.502Z,94746.81
2022-10-13T17:06:22.823Z,94786.06
2022-10-13T17:08:50.648Z,94724.69
2022-10-13T17:11:23.249Z,94711.59
2022-10-13T17:13:50.554Z,94785.19
2022-10-13T17:16:17.770Z,94757.38
2022-10-13T17:18:45.894Z,94774.13
2022-10-13T17:21:16.401Z,94761.00
2022-10-13T17:23:48.117Z,94756.47
2022-10-13T17:26:16.817Z,94776.09
2022-10-13T17:28:43.834Z,94777.69
2022-10-13T17:31:16.837Z,94782.59
2022-10-13T17:33:44.122Z,94742.53
2022-10-13T17:36:17.655Z,94787.09
2022-10-13T17:38:45.261Z,94714.25
2022-10-13T17:41:12.275Z,94738.97
2022-10-13T17:43:39.863Z,94751.81
2022-10-13T17:46:35.749Z,94761.16
2022-10-13T17:49:11.938Z,94718.81
2022-10-13T17:51:39.723Z,94749.94
2022-10-13T17:54:10.130Z,94747.69
2022-10-13T17:56:39.928Z,94763.16
2022-10-13T17:59:10.360Z,94764.34
2022-10-13T18:01:37.370Z,94751.06
2022-10-13T18:04:06.487Z,94765.97
2022-10-13T18:06:38.545Z,94765.41
2022-10-13T18:09:07.394Z,94799.56
2022-10-13T18:11:34.237Z,94766.13
2022-10-13T18:14:01.144Z,94783.28
2022-10-13T18:16:28.010Z,94765.44
2022-10-13T18:18:54.891Z,94725.38
2022-10-13T18:21:24.131Z,94755.69
2022-10-13T18:23:51.235Z,94780.00
2022-10-13T18:26:19.702Z,94793.28
2022-10-13T18:28:48.510Z,94771.00
2022-10-13T18:31:20.239Z,94742.53
2022-10-13T18:33:47.558Z,94746.75
2022-10-13T18:36:28.481Z,94718.97
2022-10-13T18:39:00.732Z,94729.25
2022-10-13T18:41:27.437Z,94782.38
2022-10-13T18:43:55.247Z,94722.69
2022-10-13T18:46:22.012Z,94800.47
2022-10-13T18:48:48.716Z,94752.06
2022-10-13T18:51:17.053Z,94739.16
2022-10-13T18:53:47.036Z,94757.34
2022-10-13T18:56:16.294Z,94749.78
2022-10-13T18:58:43.066Z,94774.84
2022-10-13T19:01:12.251Z,94764.34
2022-10-13T19:03:40.539Z,94777.72
2022-10-13T19:06:10.380Z,94737.31
2022-10-13T19:08:38.490Z,94788.13
2022-10-13T19:11:13.476Z,94768.34
2022-10-13T19:13:40.765Z,94761.59
2022-10-13T19:16:18.905Z,94798.00
2022-10-13T19:18:48.478Z,94797.50
2022-10-13T19:21:15.347Z,94805.22
2022-10-13T19:23:42.217Z,94745.38
2022-10-13T19:26:14.922Z,94761.19
2022-10-13T19:28:43.769Z,94797.59
2022-10-13T19:31:14.174Z,94796.75
2022-10-13T19:33:44.680Z,94750.03
2022-10-13T19:36:21.720Z,94791.75
2022-10-13T19:38:50.441Z,94789.06
2022-10-13T19:41:17.717Z,94768.81
2022-10-13T19:43:44.672Z,94758.09
2022-10-13T19:46:18.739Z,94749.91
2022-10-13T19:48:45.576Z,94754.75
2022-10-13T19:51:13.035Z,94807.06
2022-10-13T19:53:40.662Z,94774.50
2022-10-13T19:56:08.134Z,94741.91
2022-10-13T19:58:35.579Z,94793.88
2022-10-13T20:01:08.311Z,94772.34
2022-10-13T20:03:36.242Z,94760.44
2022-10-13T20:06:06.738Z,94777.81
2022-10-13T20:08:33.573Z,94785.81
2022-10-13T20:11:06.203Z,94788.53
2022-10-13T20:13:32.896Z,94797.03
2022-10-13T20:15:59.621Z,94800.19
2022-10-13T20:18:26.357Z,94751.88
2022-10-13T20:20:53.011Z,94779.63
2022-10-13T20:23:19.684Z,94749.00
2022-10-13T20:25:46.377Z,94787.72
2022-10-13T20:28:14.172Z,94792.56
2022-10-13T20:30:40.975Z,94757.91
2022-10-13T20:33:09.069Z,94759.81
2022-10-13T20:35:35.784Z,94768.16
2022-10-13T20:38:02.482Z,94765.09
2022-10-13T20:40:29.166Z,94774.09
2022-10-13T20:42:55.804Z,94783.66
2022-10-13T20:45:22.552Z,94814.19
2022-10-13T20:47:50.188Z,94771.81
2022-10-13T20:50:17.368Z,94766.38
2022-10-13T20:52:44.034Z,94808.75
2022-10-13T20:55:10.778Z,94799.66
2022-10-13T20:57:37.430Z,94790.47
2022-10-13T21:00:05.789Z,94795.19
2022-10-13T21:02:32.696Z,94810.63
2022-10-13T21:04:59.368Z,94804.47
2022-10-13T21:07:28.652Z,94771.03
2022-10-13T21:09:55.402Z,94780.50
2022-10-13T21:12:22.132Z,94816.56
2022-10-13T21:14:50.889Z,94774.31
2022-10-13T21:17:17.575Z,94767.75
2022-10-13T21:19:44.258Z,94816.56
2022-10-13T21:22:11.022Z,94814.47
2022-10-13T21:24:37.848Z,94767.75
2022-10-13T21:27:04.542Z,94813.78
2022-10-13T21:29:31.241Z,94817.53
2022-10-13T21:31:58.238Z,94831.00
2022-10-13T21:34:24.956Z,94774.53
2022-10-13T21:36:51.643Z,94806.69
2022-10-13T21:39:18.773Z,94771.63
2022-10-13T21:41:45.462Z,94774.91
2022-10-13T21:44:14.993Z,94808.88
2022-10-13T21:46:41.856Z,94789.78
2022-10-13T21:49:09.533Z,94819.56
2022-10-13T21:51:38.243Z,94791.84
2022-10-13T21:54:07.698Z,94826.84
2022-10-13T21:56:35.022Z,94776.75
2022-10-13T21:59:01.879Z,94795.41
2022-10-13T22:01:29.752Z,94788.44
2022-10-13T22:03:59.162Z,94762.00
2022-10-13T22:06:26.688Z,94804.53
2022-10-13T22:08:55.855Z,94827.41
2022-10-13T22:11:24.727Z,94829.44
2022-10-13T22:13:55.370Z,94831.72
2022-10-13T22:16:24.139Z,94788.25
2022-10-13T22:18:55.200Z,94807.47
2022-10-13T22:21:24.384Z,94824.59
2022-10-13T22:23:51.099Z,94774.03
2022-10-13T22:26:19.821Z,94771.81
2022-10-13T22:28:48.383Z,94830.72
2022-10-13T22:31:15.395Z,94799.53
2022-10-13T22:33:43.231Z,94773.81
2022-10-13T22:36:16.005Z,94820.13
2022-10-13T22:38:43.944Z,94757.88
2022-10-13T22:41:10.864Z,94808.94
2022-10-13T22:43:37.547Z,94809.75
2022-10-13T22:46:04.879Z,94808.22
2022-10-13T22:48:36.954Z,94782.47
2022-10-13T22:51:07.430Z,94819.59
2022-10-13T22:53:34.493Z,94811.97
2022-10-13T22:56:06.391Z,94824.22
2022-10-13T22:58:33.159Z,94770.47
2022-10-13T23:01:10.786Z,94793.53
2022-10-13T23:03:38.211Z,94814.03
2022-10-13T23:06:06.818Z,94803.00
2022-10-13T23:08:33.973Z,94768.72
2022-10-13T23:11:00.886Z,94807.84
2022-10-13T23:13:27.554Z,94785.41
2022-10-13T23:15:54.352Z,94758.69
2022-10-13T23:18:22.083Z,94786.06
2022-10-13T23:20:51.082Z,94788.53
2022-10-13T23:23:21.104Z,94764.06
2022-10-13T23:25:47.790Z,94759.78
2022-10-13T23:28:14.497Z,94787.59
2022-10-13T23:30:41.303Z,94787.28
2022-10-13T23:33:08.338Z,94769.34
2022-10-13T23:35:35.057Z,94756.25
2022-10-13T23:38:01.795Z,94800.81
2022-10-13T23:40:34.510Z,94803.28
2022-10-13T23:43:01.209Z,94802.09
2022-10-13T23:45:27.892Z,94788.84
2022-10-13T23:47:54.605Z,94797.66
2022-10-13T23:50:21.331Z,94813.59
2022-10-13T23:52:48.004Z,94808.84
2022-10-13T23:55:14.843Z,94768.81
2022-10-13T23:57:41.503Z,94780.94
